Time;durP1;ratioP1;P1;durP2;ratioP2;P2;SDS_P1;SDS_P2;PMS_P1;PMS_P2;Temp;Humidity;BMP_temperature;BMP_pressure;BME280_temperature;BME280_humidity;BME280_pressure;Samples;Min_cycle;Max_cycle;Signal;HPM_P1;HPM_P2
2023/03/07 00:00:25;;;;;;;5.30;4.07;;;;;;;;;;5013520;28;20683;-68
2023/03/07 00:02:51;;;;;;;4.97;4.43;;;;;;;;;;5013408;28;20220;-68
2023/03/07 00:05:16;;;;;;;4.70;4.20;;;;;;;;;;5012215;28;20307;-68
2023/03/07 00:07:42;;;;;;;4.90;4.07;;;;;;;;;;5013311;28;20599;-68
2023/03/07 00:10:07;;;;;;;4.53;4.07;;;;;;;;;;5012755;28;20212;-67
2023/03/07 00:12:33;;;;;;;4.70;3.87;;;;;;;;;;5012154;28;20296;-68
2023/03/07 00:14:58;;;;;;;4.97;3.73;;;;;;;;;;5013081;28;20641;-68
2023/03/07 00:17:23;;;;;;;4.53;3.87;;;;;;;;;;5012483;28;20217;-68
2023/03/07 00:19:49;;;;;;;4.17;3.67;;;;;;;;;;5020581;28;20224;-68
2023/03/07 00:22:14;;;;;;;4.70;3.67;;;;;;;;;;5012585;28;20217;-68
2023/03/07 00:24:39;;;;;;;4.47;3.60;;;;;;;;;;5012777;28;20786;-68
2023/03/07 00:27:05;;;;;;;4.50;3.73;;;;;;;;;;5010839;28;20229;-69
2023/03/07 00:29:30;;;;;;;4.70;3.87;;;;;;;;;;4993510;28;20300;-69
2023/03/07 00:31:56;;;;;;;4.83;3.53;;;;;;;;;;4992618;28;20223;-68
2023/03/07 00:34:21;;;;;;;4.77;3.40;;;;;;;;;;4992925;28;20216;-68
2023/03/07 00:36:47;;;;;;;6.30;3.87;;;;;;;;;;4993219;28;20305;-68
2023/03/07 00:39:12;;;;;;;5.63;4.00;;;;;;;;;;4992109;28;20213;-68
2023/03/07 00:41:37;;;;;;;5.53;3.60;;;;;;;;;;4992733;28;20235;-69
2023/03/07 00:44:03;;;;;;;5.93;3.63;;;;;;;;;;4992722;28;20300;-68
2023/03/07 00:46:28;;;;;;;5.43;4.10;;;;;;;;;;4992081;28;20581;-68
2023/03/07 00:48:53;;;;;;;6.40;5.00;;;;;;;;;;5012287;28;20226;-69
2023/03/07 00:51:19;;;;;;;4.83;3.87;;;;;;;;;;5031860;28;20228;-68
2023/03/07 00:53:44;;;;;;;5.53;3.87;;;;;;;;;;5031620;28;20629;-69
2023/03/07 00:56:11;;;;;;;5.30;3.43;;;;;;;;;;5031408;28;20269;-68
2023/03/07 00:58:37;;;;;;;6.03;3.80;;;;;;;;;;5032301;28;20299;-69
2023/03/07 01:01:03;;;;;;;3.57;2.93;;;;;;;;;;5031233;28;20302;-68
2023/03/07 01:03:28;;;;;;;4.07;3.07;;;;;;;;;;5031791;28;20220;-69
2023/03/07 01:05:53;;;;;;;5.17;3.27;;;;;;;;;;5025707;28;20323;-69
2023/03/07 01:08:19;;;;;;;3.95;3.10;;;;;;;;;;5011084;28;20228;-68
2023/03/07 01:10:44;;;;;;;5.40;3.33;;;;;;;;;;5012181;28;20220;-69
2023/03/07 01:13:10;;;;;;;5.07;3.40;;;;;;;;;;5011263;28;20638;-68
2023/03/07 01:15:35;;;;;;;5.93;3.53;;;;;;;;;;5005313;28;20252;-69
2023/03/07 01:18:01;;;;;;;5.23;3.27;;;;;;;;;;4992412;28;20221;-67
2023/03/07 01:20:29;;;;;;;4.83;3.70;;;;;;;;;;5020233;28;20600;-69
2023/03/07 01:22:54;;;;;;;4.07;3.33;;;;;;;;;;5011172;28;20659;-66
2023/03/07 01:25:19;;;;;;;5.43;3.70;;;;;;;;;;5002688;28;20270;-67
2023/03/07 01:27:44;;;;;;;6.17;4.33;;;;;;;;;;4994353;28;20228;-67
2023/03/07 01:30:10;;;;;;;5.40;4.17;;;;;;;;;;4993514;28;20223;-67
2023/03/07 01:32:35;;;;;;;7.67;4.20;;;;;;;;;;4982965;28;20651;-67
2023/03/07 01:35:01;;;;;;;6.97;4.50;;;;;;;;;;4994396;28;20216;-67
2023/03/07 01:37:26;;;;;;;6.20;4.40;;;;;;;;;;4994965;28;20220;-67
2023/03/07 01:39:52;;;;;;;8.77;5.37;;;;;;;;;;4993338;28;20213;-67
2023/03/07 01:42:17;;;;;;;5.90;4.50;;;;;;;;;;4992352;28;20220;-67
2023/03/07 01:44:58;;;;;;;6.93;4.67;;;;;;;;;;4996067;28;20627;-68
2023/03/07 01:47:24;;;;;;;5.87;5.07;;;;;;;;;;5001212;28;20311;-67
2023/03/07 01:49:49;;;;;;;7.07;5.53;;;;;;;;;;4982216;28;20304;-67
2023/03/07 01:52:28;;;;;;;7.23;5.30;;;;;;;;;;4999311;28;20244;-67
2023/03/07 01:54:55;;;;;;;8.83;5.20;;;;;;;;;;5000489;28;20291;-67
2023/03/07 01:57:21;;;;;;;6.80;5.30;;;;;;;;;;4999322;28;20221;-67
2023/03/07 01:59:48;;;;;;;6.43;5.30;;;;;;;;;;4995736;28;20216;-67
2023/03/07 02:02:16;;;;;;;6.83;5.40;;;;;;;;;;4992299;28;20220;-67
2023/03/07 02:04:41;;;;;;;6.67;5.20;;;;;;;;;;4991605;28;20263;-67
2023/03/07 02:07:08;;;;;;;8.20;5.80;;;;;;;;;;4994617;28;20702;-66
2023/03/07 02:09:33;;;;;;;6.63;5.30;;;;;;;;;;5001593;28;20225;-67
2023/03/07 02:11:59;;;;;;;7.35;4.82;;;;;;;;;;5001161;28;20216;-67
2023/03/07 02:14:25;;;;;;;6.23;4.57;;;;;;;;;;4999058;28;20569;-67
2023/03/07 02:16:50;;;;;;;6.73;4.90;;;;;;;;;;4986275;28;20853;-67
2023/03/07 02:19:21;;;;;;;6.40;4.70;;;;;;;;;;4995204;28;20668;-67
2023/03/07 02:21:56;;;;;;;6.40;4.73;;;;;;;;;;4999900;28;20291;-67
2023/03/07 02:24:28;;;;;;;6.13;4.32;;;;;;;;;;4993549;28;20638;-67
2023/03/07 02:26:54;;;;;;;7.60;4.57;;;;;;;;;;4988584;28;20651;-67
2023/03/07 02:29:20;;;;;;;8.13;4.83;;;;;;;;;;4973805;28;21263;-67
2023/03/07 02:31:45;;;;;;;9.07;4.70;;;;;;;;;;4980724;28;20617;-67
2023/03/07 02:34:18;;;;;;;6.00;4.47;;;;;;;;;;4989105;28;20706;-66
2023/03/07 02:39:46;;;;;;;3.93;2.87;;;;;;;;;;4999253;28;20284;-66
2023/03/07 02:42:17;;;;;;;6.23;3.20;;;;;;;;;;5000501;28;20310;-66
2023/03/07 02:44:43;;;;;;;5.43;3.30;;;;;;;;;;4999898;28;20639;-67
2023/03/07 02:47:09;;;;;;;4.93;3.40;;;;;;;;;;4993464;28;20371;-66
2023/03/07 02:49:35;;;;;;;5.30;3.30;;;;;;;;;;4976736;28;20248;-67
2023/03/07 02:52:00;;;;;;;5.77;3.10;;;;;;;;;;4974783;28;20244;-67
2023/03/07 02:54:25;;;;;;;5.10;3.20;;;;;;;;;;4980359;28;20303;-67
2023/03/07 02:56:51;;;;;;;5.73;3.33;;;;;;;;;;4981793;28;20227;-67
2023/03/07 02:59:16;;;;;;;4.93;3.10;;;;;;;;;;4981168;28;20303;-67
2023/03/07 03:01:42;;;;;;;7.20;3.00;;;;;;;;;;4985421;28;20213;-67
2023/03/07 03:04:07;;;;;;;4.83;2.73;;;;;;;;;;4989929;28;20221;-66
2023/03/07 03:06:32;;;;;;;4.20;2.40;;;;;;;;;;4990488;28;20244;-67
2023/03/07 03:08:57;;;;;;;6.00;3.10;;;;;;;;;;4990766;28;20248;-67
2023/03/07 03:11:23;;;;;;;5.87;2.90;;;;;;;;;;4990481;28;20874;-67
2023/03/07 03:13:48;;;;;;;6.60;2.50;;;;;;;;;;4989742;28;20512;-67
2023/03/07 03:16:13;;;;;;;3.67;2.60;;;;;;;;;;5021314;28;20215;-67
2023/03/07 03:18:38;;;;;;;6.27;2.80;;;;;;;;;;5034157;28;20212;-67
2023/03/07 03:21:08;;;;;;;3.97;2.80;;;;;;;;;;5023280;28;20627;-67
2023/03/07 03:23:33;;;;;;;5.00;3.00;;;;;;;;;;5030112;28;20223;-67
2023/03/07 03:25:59;;;;;;;4.13;2.57;;;;;;;;;;5029756;28;20200;-67
2023/03/07 03:28:24;;;;;;;6.93;3.30;;;;;;;;;;5009126;28;20220;-67
2023/03/07 03:30:56;;;;;;;6.23;2.93;;;;;;;;;;5010041;28;20213;-67
2023/03/07 03:33:21;;;;;;;7.50;3.20;;;;;;;;;;5007991;28;21089;-67
2023/03/07 03:35:46;;;;;;;4.77;2.77;;;;;;;;;;5004245;28;20224;-67
2023/03/07 03:38:12;;;;;;;5.87;2.70;;;;;;;;;;5009665;28;20221;-67
2023/03/07 03:40:37;;;;;;;4.17;2.67;;;;;;;;;;5009913;28;20221;-67
2023/03/07 03:43:02;;;;;;;4.60;2.73;;;;;;;;;;5009163;28;20573;-67
2023/03/07 03:45:27;;;;;;;6.13;2.70;;;;;;;;;;5010109;28;20209;-67
2023/03/07 03:47:53;;;;;;;5.07;2.97;;;;;;;;;;5013643;28;20220;-67
2023/03/07 03:50:18;;;;;;;5.40;2.70;;;;;;;;;;5029193;28;20208;-67
2023/03/07 03:52:44;;;;;;;6.23;2.50;;;;;;;;;;5033501;28;20230;-67
2023/03/07 03:55:09;;;;;;;6.40;2.87;;;;;;;;;;5032531;28;20289;-66
2023/03/07 03:57:34;;;;;;;4.17;2.23;;;;;;;;;;5032764;28;20223;-67
2023/03/07 03:59:59;;;;;;;5.10;2.30;;;;;;;;;;5032931;28;20212;-67
2023/03/07 04:02:25;;;;;;;7.27;2.60;;;;;;;;;;5032389;28;20216;-67
2023/03/07 04:04:51;;;;;;;3.90;2.60;;;;;;;;;;5032539;28;20223;-67
2023/03/07 04:07:16;;;;;;;4.85;2.20;;;;;;;;;;5016806;28;20600;-67
2023/03/07 04:09:42;;;;;;;5.27;2.30;;;;;;;;;;5019317;28;20219;-67
2023/03/07 04:12:07;;;;;;;4.57;2.20;;;;;;;;;;5013843;28;20227;-67
2023/03/07 04:14:32;;;;;;;5.40;2.37;;;;;;;;;;5032708;28;20259;-67
2023/03/07 04:16:58;;;;;;;5.90;2.60;;;;;;;;;;5015745;28;20220;-67
2023/03/07 04:19:23;;;;;;;5.97;2.53;;;;;;;;;;5012473;28;20243;-67
2023/03/07 04:21:48;;;;;;;5.47;2.43;;;;;;;;;;5013198;28;20242;-67
2023/03/07 04:24:13;;;;;;;5.50;2.60;;;;;;;;;;5011755;28;20259;-67
2023/03/07 04:26:39;;;;;;;5.97;2.47;;;;;;;;;;5012830;28;20209;-67
2023/03/07 04:29:04;;;;;;;5.90;2.50;;;;;;;;;;4995913;28;20217;-67
2023/03/07 04:31:29;;;;;;;6.93;2.70;;;;;;;;;;4992296;28;20295;-67
2023/03/07 04:33:55;;;;;;;6.40;2.97;;;;;;;;;;4993265;28;20348;-67
2023/03/07 04:36:20;;;;;;;6.50;2.70;;;;;;;;;;4992852;28;20260;-67
2023/03/07 04:38:45;;;;;;;5.40;2.70;;;;;;;;;;4992309;28;20209;-67
2023/03/07 04:41:13;;;;;;;6.33;2.57;;;;;;;;;;4992736;28;20223;-67
2023/03/07 04:43:38;;;;;;;5.17;2.50;;;;;;;;;;4993243;28;20688;-67
2023/03/07 04:46:03;;;;;;;7.60;3.20;;;;;;;;;;4992007;28;20304;-67
2023/03/07 04:48:28;;;;;;;6.40;3.37;;;;;;;;;;5004011;28;20224;-67
2023/03/07 04:50:54;;;;;;;5.03;2.63;;;;;;;;;;5032097;28;20220;-67
2023/03/07 04:53:19;;;;;;;7.30;3.10;;;;;;;;;;5031243;28;20736;-67
2023/03/07 04:55:44;;;;;;;7.70;3.00;;;;;;;;;;5031979;28;20219;-67
2023/03/07 04:58:11;;;;;;;6.80;2.50;;;;;;;;;;5031566;28;20208;-67
2023/03/07 05:00:41;;;;;;;5.20;2.60;;;;;;;;;;5031763;28;20226;-67
2023/03/07 05:03:07;;;;;;;7.47;2.50;;;;;;;;;;5030497;28;20204;-67
2023/03/07 05:05:32;;;;;;;4.97;2.23;;;;;;;;;;5031912;28;20234;-67
2023/03/07 05:07:57;;;;;;;6.10;2.70;;;;;;;;;;5007803;28;20236;-67
2023/03/07 05:10:23;;;;;;;4.37;2.00;;;;;;;;;;5002354;28;20248;-67
2023/03/07 05:12:48;;;;;;;6.03;2.40;;;;;;;;;;5002624;28;20495;-67
2023/03/07 05:15:13;;;;;;;6.97;2.88;;;;;;;;;;4997136;28;20275;-67
2023/03/07 05:17:39;;;;;;;5.93;1.98;;;;;;;;;;4994991;28;20722;-67
2023/03/07 05:20:04;;;;;;;4.23;1.90;;;;;;;;;;4994156;28;20282;-66
2023/03/07 05:22:29;;;;;;;6.13;2.00;;;;;;;;;;5001632;28;20227;-67
2023/03/07 05:24:55;;;;;;;6.00;2.30;;;;;;;;;;5009917;28;20219;-67
2023/03/07 05:27:20;;;;;;;7.05;2.20;;;;;;;;;;5001609;28;20232;-67
2023/03/07 05:29:45;;;;;;;8.02;2.22;;;;;;;;;;5002515;28;20235;-67
2023/03/07 05:32:11;;;;;;;3.97;1.97;;;;;;;;;;5001864;28;20620;-66
2023/03/07 05:34:37;;;;;;;6.23;2.10;;;;;;;;;;5001540;28;20303;-67
2023/03/07 05:37:02;;;;;;;5.85;2.13;;;;;;;;;;5017060;28;20218;-66
2023/03/07 05:39:27;;;;;;;4.93;1.70;;;;;;;;;;5014362;28;20211;-67
2023/03/07 05:41:53;;;;;;;5.23;2.10;;;;;;;;;;5002865;28;20339;-67
2023/03/07 05:44:19;;;;;;;4.60;2.00;;;;;;;;;;4997891;28;20215;-67
2023/03/07 05:46:44;;;;;;;10.23;2.33;;;;;;;;;;5002036;28;20264;-67
2023/03/07 05:49:09;;;;;;;4.67;1.90;;;;;;;;;;5001143;28;20225;-67
2023/03/07 05:51:34;;;;;;;4.82;2.00;;;;;;;;;;5001982;28;20254;-67
2023/03/07 05:54:00;;;;;;;4.67;1.90;;;;;;;;;;5002047;28;20726;-67
2023/03/07 05:56:25;;;;;;;4.68;1.80;;;;;;;;;;5001195;28;20323;-67
2023/03/07 05:58:50;;;;;;;5.33;1.80;;;;;;;;;;5019384;28;20789;-66
2023/03/07 06:01:15;;;;;;;5.00;2.50;;;;;;;;;;5013944;28;20293;-66
2023/03/07 06:03:42;;;;;;;4.50;1.70;;;;;;;;;;5012944;28;20320;-66
2023/03/07 06:06:08;;;;;;;3.63;1.55;;;;;;;;;;5014532;28;20691;-66
2023/03/07 06:08:33;;;;;;;5.00;1.20;;;;;;;;;;5020663;28;20228;-66
2023/03/07 06:10:58;;;;;;;4.22;1.38;;;;;;;;;;5011525;28;20219;-66
2023/03/07 06:13:24;;;;;;;6.27;3.00;;;;;;;;;;4989370;28;20303;-66
2023/03/07 06:15:49;;;;;;;6.10;3.00;;;;;;;;;;4982552;28;20418;-66
2023/03/07 06:18:15;;;;;;;4.43;1.70;;;;;;;;;;4981321;28;20224;-66
2023/03/07 06:20:40;;;;;;;3.13;1.70;;;;;;;;;;4982048;28;20244;-66
2023/03/07 06:23:05;;;;;;;3.50;1.30;;;;;;;;;;4975488;28;20209;-66
2023/03/07 06:25:31;;;;;;;4.23;1.80;;;;;;;;;;4973882;28;20252;-66
2023/03/07 06:27:59;;;;;;;3.97;1.40;;;;;;;;;;4974805;28;20750;-66
2023/03/07 06:30:25;;;;;;;4.10;1.23;;;;;;;;;;4980215;28;20217;-66
2023/03/07 06:32:50;;;;;;;3.17;1.07;;;;;;;;;;4981925;28;20209;-66
2023/03/07 06:35:15;;;;;;;2.93;0.97;;;;;;;;;;5000619;28;20299;-66
2023/03/07 06:37:41;;;;;;;2.20;0.80;;;;;;;;;;5000451;28;20221;-66
2023/03/07 06:40:08;;;;;;;5.03;1.13;;;;;;;;;;5000702;28;20213;-66
2023/03/07 06:42:33;;;;;;;4.40;1.00;;;;;;;;;;5000828;28;20224;-66
2023/03/07 06:44:58;;;;;;;3.97;1.10;;;;;;;;;;4996546;28;20212;-66
2023/03/07 06:47:24;;;;;;;2.80;0.90;;;;;;;;;;4992852;28;20234;-67
2023/03/07 06:49:49;;;;;;;2.97;0.77;;;;;;;;;;4974766;28;20736;-67
2023/03/07 06:52:14;;;;;;;3.77;0.80;;;;;;;;;;4977440;28;20646;-66
2023/03/07 06:54:40;;;;;;;2.30;0.70;;;;;;;;;;4992310;28;20266;-67
2023/03/07 06:57:05;;;;;;;4.00;0.80;;;;;;;;;;5009010;28;20223;-67
2023/03/07 06:59:30;;;;;;;3.30;0.90;;;;;;;;;;5010237;28;20271;-68
2023/03/07 07:01:55;;;;;;;3.65;1.10;;;;;;;;;;5009665;28;21036;-67
2023/03/07 07:04:21;;;;;;;4.93;2.33;;;;;;;;;;5009796;28;20219;-70
2023/03/07 07:06:46;;;;;;;4.27;2.20;;;;;;;;;;5009562;28;20258;-69
2023/03/07 07:09:12;;;;;;;3.00;0.97;;;;;;;;;;5010908;28;20208;-68
2023/03/07 07:11:37;;;;;;;9.37;7.50;;;;;;;;;;5020982;28;20244;-69
2023/03/07 07:14:02;;;;;;;25.13;19.57;;;;;;;;;;5020488;28;20281;-68
2023/03/07 07:16:28;;;;;;;4.13;1.43;;;;;;;;;;5013780;28;20216;-69
2023/03/07 07:18:53;;;;;;;1.97;1.00;;;;;;;;;;5009733;28;20671;-69
2023/03/07 07:21:19;;;;;;;2.90;1.00;;;;;;;;;;5008617;28;20204;-69
2023/03/07 07:23:45;;;;;;;2.07;0.80;;;;;;;;;;5009661;28;20217;-68
2023/03/07 07:26:11;;;;;;;2.90;0.90;;;;;;;;;;5010640;28;20282;-69
2023/03/07 07:28:36;;;;;;;2.83;0.77;;;;;;;;;;5013331;28;20577;-69
2023/03/07 07:31:02;;;;;;;2.83;0.80;;;;;;;;;;5012124;28;20258;-68
2023/03/07 07:33:28;;;;;;;1.97;0.70;;;;;;;;;;5013256;28;20212;-68
2023/03/07 07:35:53;;;;;;;2.57;0.80;;;;;;;;;;5012739;28;20572;-68
2023/03/07 07:38:18;;;;;;;1.33;0.90;;;;;;;;;;5012853;28;20210;-69
2023/03/07 07:40:44;;;;;;;1.63;0.63;;;;;;;;;;5013036;28;20618;-69
2023/03/07 07:43:16;;;;;;;2.03;0.60;;;;;;;;;;5012685;28;20232;-69
2023/03/07 07:45:41;;;;;;;2.13;0.70;;;;;;;;;;5013253;28;20690;-68
2023/03/07 07:48:06;;;;;;;2.03;0.60;;;;;;;;;;5011948;28;20437;-69
2023/03/07 07:50:31;;;;;;;3.23;0.77;;;;;;;;;;5012950;28;20250;-68
2023/03/07 07:52:57;;;;;;;1.73;0.77;;;;;;;;;;5012762;28;20303;-69
2023/03/07 07:55:23;;;;;;;1.70;0.63;;;;;;;;;;5014087;28;20219;-69
2023/03/07 07:57:49;;;;;;;2.10;0.60;;;;;;;;;;5015222;28;20204;-70
2023/03/07 08:00:19;;;;;;;3.20;0.80;;;;;;;;;;5019768;28;20779;-72
2023/03/07 08:02:45;;;;;;;2.00;0.70;;;;;;;;;;5015213;28;20212;-72
2023/03/07 08:05:11;;;;;;;1.13;0.60;;;;;;;;;;5023614;28;20200;-70
2023/03/07 08:07:36;;;;;;;1.57;0.63;;;;;;;;;;5024171;28;20224;-70
2023/03/07 08:10:02;;;;;;;1.03;0.70;;;;;;;;;;5022713;28;20204;-69
2023/03/07 08:12:27;;;;;;;2.37;0.80;;;;;;;;;;5022095;28;20587;-70
2023/03/07 08:14:53;;;;;;;1.57;0.80;;;;;;;;;;5021082;28;20682;-70
2023/03/07 08:17:18;;;;;;;2.00;0.80;;;;;;;;;;5028332;28;20219;-69
2023/03/07 08:19:44;;;;;;;1.45;0.80;;;;;;;;;;5032569;28;20207;-68
2023/03/07 08:22:09;;;;;;;1.20;0.60;;;;;;;;;;5023326;28;20303;-66
2023/03/07 08:24:34;;;;;;;1.53;0.60;;;;;;;;;;5032457;28;20639;-68
2023/03/07 08:27:00;;;;;;;1.53;1.10;;;;;;;;;;5027995;28;20212;-68
2023/03/07 08:29:25;;;;;;;1.47;0.73;;;;;;;;;;5029104;28;20243;-69
2023/03/07 08:31:53;;;;;;;1.60;0.70;;;;;;;;;;5025468;28;20223;-68
2023/03/07 08:34:18;;;;;;;1.20;0.70;;;;;;;;;;5032164;28;20307;-68
2023/03/07 08:36:44;;;;;;;1.90;0.73;;;;;;;;;;5031229;28;20223;-67
2023/03/07 08:39:09;;;;;;;1.07;0.80;;;;;;;;;;5031435;28;20584;-70
2023/03/07 08:41:34;;;;;;;1.30;0.70;;;;;;;;;;5032616;28;20256;-70
2023/03/07 08:43:59;;;;;;;2.57;0.70;;;;;;;;;;5032370;28;20215;-70
2023/03/07 08:46:25;;;;;;;1.87;0.80;;;;;;;;;;5031244;28;20223;-70
2023/03/07 08:48:50;;;;;;;1.87;0.60;;;;;;;;;;5025403;28;20228;-71
2023/03/07 08:51:16;;;;;;;1.80;0.80;;;;;;;;;;5029878;28;20303;-70
2023/03/07 08:53:42;;;;;;;0.83;0.70;;;;;;;;;;5030930;28;20270;-70
2023/03/07 08:56:09;;;;;;;9.20;6.30;;;;;;;;;;5031905;28;20493;-70
2023/03/07 08:58:34;;;;;;;6.73;4.00;;;;;;;;;;5031496;28;20218;-71
2023/03/07 09:01:00;;;;;;;29.87;23.07;;;;;;;;;;5032117;28;20208;-70
2023/03/07 09:03:25;;;;;;;4.73;3.23;;;;;;;;;;5031351;28;20207;-71
2023/03/07 09:05:50;;;;;;;4.30;2.50;;;;;;;;;;5023635;28;20233;-71
2023/03/07 09:08:15;;;;;;;11.20;8.57;;;;;;;;;;5011315;28;20911;-70
2023/03/07 09:10:41;;;;;;;4.83;3.20;;;;;;;;;;5012218;28;20208;-71
2023/03/07 09:13:06;;;;;;;4.60;3.53;;;;;;;;;;5011111;28;20263;-69
2023/03/07 09:15:31;;;;;;;2.33;1.80;;;;;;;;;;5016042;28;20230;-70
2023/03/07 09:17:56;;;;;;;2.67;1.30;;;;;;;;;;5031465;28;20575;-70
2023/03/07 09:20:22;;;;;;;3.97;1.20;;;;;;;;;;5030723;28;20266;-70
2023/03/07 09:22:47;;;;;;;1.47;1.10;;;;;;;;;;5031494;28;20208;-70
2023/03/07 09:25:12;;;;;;;2.57;1.50;;;;;;;;;;5031075;28;20729;-70
2023/03/07 09:27:38;;;;;;;2.80;1.33;;;;;;;;;;5027983;28;20649;-71
2023/03/07 09:30:03;;;;;;;2.83;1.73;;;;;;;;;;5007866;28;20204;-72
2023/03/07 09:32:30;;;;;;;1.77;1.53;;;;;;;;;;5007543;28;20235;-71
2023/03/07 09:34:56;;;;;;;2.90;1.60;;;;;;;;;;5007366;28;20251;-70
2023/03/07 09:37:21;;;;;;;2.00;1.77;;;;;;;;;;5000805;28;20232;-70
2023/03/07 09:39:47;;;;;;;2.37;1.50;;;;;;;;;;5007960;28;20216;-70
2023/03/07 09:42:26;;;;;;;2.37;1.40;;;;;;;;;;5006658;28;20212;-69
2023/03/07 09:44:56;;;;;;;2.47;1.80;;;;;;;;;;5006397;28;20676;-65
2023/03/07 09:47:31;;;;;;;2.63;1.60;;;;;;;;;;5001084;28;20240;-65
2023/03/07 09:49:56;;;;;;;2.57;1.87;;;;;;;;;;4993872;28;20567;-65
2023/03/07 09:52:22;;;;;;;2.30;1.57;;;;;;;;;;4991819;28;20224;-63
2023/03/07 09:54:49;;;;;;;2.97;1.90;;;;;;;;;;4986194;28;20228;-65
2023/03/07 09:57:21;;;;;;;2.10;1.50;;;;;;;;;;5003797;28;20243;-65
2023/03/07 09:59:47;;;;;;;2.83;1.80;;;;;;;;;;4983809;28;20224;-65
2023/03/07 10:02:14;;;;;;;2.93;1.83;;;;;;;;;;5004987;28;20318;-64
2023/03/07 10:04:42;;;;;;;4.00;1.80;;;;;;;;;;5007650;28;20713;-64
2023/03/07 10:07:07;;;;;;;6.73;5.93;;;;;;;;;;5009969;28;20216;-64
2023/03/07 10:09:32;;;;;;;3.37;2.40;;;;;;;;;;5048754;28;20210;-65
2023/03/07 10:12:02;;;;;;;7.07;6.33;;;;;;;;;;5044672;28;20204;-65
2023/03/07 10:14:33;;;;;;;3.47;2.50;;;;;;;;;;5008624;28;20221;-65
2023/03/07 10:17:02;;;;;;;3.53;2.73;;;;;;;;;;5041461;28;20321;-65
2023/03/07 10:19:30;;;;;;;7.20;6.30;;;;;;;;;;5049972;28;20456;-64
2023/03/07 10:22:15;;;;;;;4.47;2.37;;;;;;;;;;5048999;28;20211;-65
2023/03/07 10:24:43;;;;;;;3.87;2.33;;;;;;;;;;5049293;28;20207;-65
2023/03/07 10:27:09;;;;;;;3.43;2.10;;;;;;;;;;5026616;28;20223;-65
2023/03/07 10:29:37;;;;;;;3.20;2.60;;;;;;;;;;5009704;28;20228;-65
2023/03/07 10:32:07;;;;;;;3.23;2.30;;;;;;;;;;5004543;28;20212;-63
2023/03/07 10:34:32;;;;;;;3.57;2.50;;;;;;;;;;5006490;28;20223;-64
2023/03/07 10:37:09;;;;;;;6.33;3.67;;;;;;;;;;5010203;28;20216;-64
2023/03/07 10:39:40;;;;;;;3.17;2.10;;;;;;;;;;5008712;28;20663;-64
2023/03/07 10:42:06;;;;;;;3.53;2.57;;;;;;;;;;5010105;28;20209;-64
2023/03/07 10:44:32;;;;;;;2.37;2.17;;;;;;;;;;5009917;28;20216;-64
2023/03/07 10:46:58;;;;;;;3.17;2.07;;;;;;;;;;5010350;28;20230;-64
2023/03/07 10:49:31;;;;;;;2.67;2.17;;;;;;;;;;5009830;28;20228;-64
2023/03/07 10:52:02;;;;;;;2.87;2.03;;;;;;;;;;5010223;28;20220;-64
2023/03/07 10:54:29;;;;;;;2.73;1.70;;;;;;;;;;5009931;28;20275;-64
2023/03/07 10:57:04;;;;;;;2.97;2.00;;;;;;;;;;5010048;28;20262;-64
2023/03/07 10:59:29;;;;;;;2.80;1.80;;;;;;;;;;5006301;28;20691;-66
2023/03/07 11:01:56;;;;;;;3.43;2.00;;;;;;;;;;5011039;28;20227;-65
2023/03/07 11:04:22;;;;;;;3.03;1.80;;;;;;;;;;5012680;28;20311;-65
2023/03/07 11:06:51;;;;;;;3.87;1.87;;;;;;;;;;5033569;28;20716;-65
2023/03/07 11:09:22;;;;;;;2.37;1.70;;;;;;;;;;5011873;28;20225;-65
2023/03/07 11:11:48;;;;;;;2.00;1.40;;;;;;;;;;5011330;28;20274;-65
2023/03/07 11:14:13;;;;;;;2.47;1.50;;;;;;;;;;5011680;28;20240;-64
2023/03/07 11:16:39;;;;;;;2.50;1.53;;;;;;;;;;5039669;28;20704;-64
2023/03/07 11:19:21;;;;;;;2.97;1.80;;;;;;;;;;5051504;28;20225;-64
2023/03/07 11:21:51;;;;;;;2.47;1.50;;;;;;;;;;5006284;28;20230;-64
2023/03/07 11:24:23;;;;;;;3.00;2.60;;;;;;;;;;5006490;28;20922;-65
2023/03/07 11:26:50;;;;;;;3.63;2.50;;;;;;;;;;5010062;28;20228;-65
2023/03/07 11:29:16;;;;;;;3.73;3.00;;;;;;;;;;4991168;28;20566;-64
2023/03/07 11:31:46;;;;;;;4.67;3.83;;;;;;;;;;5012676;28;20270;-65
2023/03/07 11:34:18;;;;;;;8.37;5.87;;;;;;;;;;5011212;28;20237;-65
2023/03/07 11:36:46;;;;;;;2.23;1.50;;;;;;;;;;5019215;28;20247;-65
2023/03/07 11:39:15;;;;;;;2.57;1.60;;;;;;;;;;5031140;28;20583;-64
2023/03/07 11:41:44;;;;;;;2.77;1.47;;;;;;;;;;5030794;28;20266;-64
2023/03/07 11:44:14;;;;;;;1.63;1.00;;;;;;;;;;5028668;28;20304;-64
2023/03/07 11:46:39;;;;;;;1.23;1.13;;;;;;;;;;5029886;28;20220;-64
2023/03/07 11:49:10;;;;;;;1.60;1.00;;;;;;;;;;5017232;28;20355;-63
2023/03/07 11:51:45;;;;;;;1.47;1.00;;;;;;;;;;5007390;28;20263;-65
2023/03/07 11:54:14;;;;;;;2.43;1.10;;;;;;;;;;5009825;28;20243;-64
2023/03/07 11:56:40;;;;;;;2.53;1.40;;;;;;;;;;5010234;28;20208;-65
2023/03/07 11:59:15;;;;;;;2.63;1.43;;;;;;;;;;5010580;28;20285;-65
2023/03/07 12:01:46;;;;;;;2.23;0.83;;;;;;;;;;5010715;28;20240;-65
2023/03/07 12:04:30;;;;;;;1.03;0.60;;;;;;;;;;5006492;28;20240;-65
2023/03/07 12:07:14;;;;;;;2.60;1.80;;;;;;;;;;5031170;28;20216;-64
2023/03/07 12:10:04;;;;;;;1.20;0.90;;;;;;;;;;5030209;28;20586;-64
2023/03/07 12:12:39;;;;;;;0.70;0.67;;;;;;;;;;5029782;28;20646;-64
2023/03/07 12:15:24;;;;;;;1.73;0.90;;;;;;;;;;5028833;28;20265;-64
2023/03/07 12:17:57;;;;;;;2.20;1.00;;;;;;;;;;5007713;28;20236;-64
2023/03/07 12:20:23;;;;;;;2.20;1.03;;;;;;;;;;5007556;28;20216;-64
2023/03/07 12:23:00;;;;;;;1.10;0.80;;;;;;;;;;5016556;28;20699;-64
2023/03/07 12:25:32;;;;;;;2.83;0.80;;;;;;;;;;5032654;28;20214;-64
2023/03/07 12:27:59;;;;;;;1.63;0.80;;;;;;;;;;5019601;28;20230;-64
2023/03/07 12:30:25;;;;;;;1.43;1.10;;;;;;;;;;5023464;28;20215;-65
2023/03/07 12:32:51;;;;;;;2.77;0.83;;;;;;;;;;5019220;28;20211;-64
2023/03/07 12:35:22;;;;;;;1.50;0.80;;;;;;;;;;5022393;28;20220;-64
2023/03/07 12:37:51;;;;;;;2.40;0.73;;;;;;;;;;5029258;28;20207;-63
2023/03/07 12:40:16;;;;;;;2.30;1.40;;;;;;;;;;5027450;28;20644;-63
2023/03/07 12:42:43;;;;;;;1.83;0.60;;;;;;;;;;5030709;28;20300;-63
2023/03/07 12:45:10;;;;;;;2.87;1.03;;;;;;;;;;5028338;28;20215;-63
2023/03/07 12:47:45;;;;;;;1.60;0.90;;;;;;;;;;5026148;28;20301;-64
2023/03/07 12:50:16;;;;;;;1.60;0.60;;;;;;;;;;5009757;28;20746;-64
2023/03/07 12:52:51;;;;;;;4.53;1.80;;;;;;;;;;5007083;28;20240;-64
2023/03/07 12:55:20;;;;;;;2.05;0.70;;;;;;;;;;5009499;28;20423;-68
2023/03/07 12:57:49;;;;;;;1.13;0.70;;;;;;;;;;5009000;28;20216;-69
2023/03/07 13:00:16;;;;;;;1.67;0.80;;;;;;;;;;5006769;28;20216;-68
2023/03/07 13:02:43;;;;;;;2.03;0.90;;;;;;;;;;4991237;28;20217;-69
2023/03/07 13:05:17;;;;;;;1.97;0.80;;;;;;;;;;4992505;28;20217;-67
2023/03/07 13:07:43;;;;;;;10.70;5.77;;;;;;;;;;4997057;28;20987;-67
2023/03/07 13:10:10;;;;;;;1.00;0.70;;;;;;;;;;4992113;28;20248;-68
2023/03/07 13:12:36;;;;;;;1.77;0.57;;;;;;;;;;4991892;28;20213;-69
2023/03/07 13:15:02;;;;;;;6.67;4.90;;;;;;;;;;4991351;28;20263;-68
2023/03/07 13:17:30;;;;;;;3.10;1.80;;;;;;;;;;4992334;28;20241;-67
2023/03/07 13:19:57;;;;;;;2.23;1.00;;;;;;;;;;4992009;28;20213;-68
2023/03/07 13:22:22;;;;;;;1.10;0.60;;;;;;;;;;4990695;28;20221;-68
2023/03/07 13:24:51;;;;;;;1.30;0.50;;;;;;;;;;4991602;28;20225;-69
2023/03/07 13:27:19;;;;;;;1.20;0.87;;;;;;;;;;4991103;28;20440;-69
2023/03/07 13:30:03;;;;;;;1.40;0.63;;;;;;;;;;4990585;28;20221;-69
2023/03/07 13:32:46;;;;;;;1.87;0.70;;;;;;;;;;5010834;28;20220;-69
2023/03/07 13:35:12;;;;;;;1.53;0.63;;;;;;;;;;5011291;28;20220;-68
2023/03/07 13:37:50;;;;;;;0.87;0.50;;;;;;;;;;5010648;28;20239;-69
2023/03/07 13:40:25;;;;;;;2.17;0.90;;;;;;;;;;4992479;28;20258;-67
2023/03/07 13:42:51;;;;;;;2.07;0.70;;;;;;;;;;4990767;28;20646;-67
2023/03/07 13:45:35;;;;;;;1.90;0.50;;;;;;;;;;4991172;28;20299;-67
2023/03/07 13:48:00;;;;;;;1.85;0.40;;;;;;;;;;4990663;28;20259;-65
2023/03/07 13:50:33;;;;;;;0.80;0.40;;;;;;;;;;5003586;28;20243;-67
2023/03/07 13:52:58;;;;;;;1.90;0.60;;;;;;;;;;5011446;28;20220;-67
2023/03/07 13:55:24;;;;;;;1.77;0.80;;;;;;;;;;5010440;28;20274;-66
2023/03/07 13:57:49;;;;;;;3.90;1.27;;;;;;;;;;5015532;28;20220;-68
2023/03/07 14:00:21;;;;;;;2.17;1.10;;;;;;;;;;5011750;28;20307;-66
2023/03/07 14:02:46;;;;;;;3.17;0.93;;;;;;;;;;5009696;28;20270;-68
2023/03/07 14:05:11;;;;;;;4.03;1.60;;;;;;;;;;5008131;28;20220;-68
2023/03/07 14:07:38;;;;;;;3.10;1.70;;;;;;;;;;5003907;28;20675;-68
2023/03/07 14:10:11;;;;;;;2.63;1.13;;;;;;;;;;5009443;28;20213;-66
2023/03/07 14:12:45;;;;;;;3.50;2.23;;;;;;;;;;5010757;28;20276;-68
2023/03/07 14:15:16;;;;;;;1.83;0.90;;;;;;;;;;5005191;28;20220;-68
2023/03/07 14:17:52;;;;;;;6.20;3.70;;;;;;;;;;5006774;28;20235;-67
2023/03/07 14:20:40;;;;;;;4.13;1.77;;;;;;;;;;5012573;28;20204;-67
2023/03/07 14:23:10;;;;;;;6.40;3.77;;;;;;;;;;5006750;28;20220;-68
2023/03/07 14:25:36;;;;;;;3.00;1.60;;;;;;;;;;5010094;28;20279;-66
2023/03/07 14:28:04;;;;;;;2.37;1.07;;;;;;;;;;5001239;28;20247;-68
2023/03/07 14:30:30;;;;;;;4.37;2.07;;;;;;;;;;5009708;28;20217;-68
2023/03/07 14:32:55;;;;;;;5.80;3.30;;;;;;;;;;5010207;28;20554;-67
2023/03/07 14:35:32;;;;;;;4.93;2.17;;;;;;;;;;5009633;28;20208;-68
2023/03/07 14:37:57;;;;;;;9.57;6.10;;;;;;;;;;5010239;28;20266;-69
2023/03/07 14:40:32;;;;;;;4.27;2.00;;;;;;;;;;5010215;28;20219;-67
2023/03/07 14:43:03;;;;;;;8.57;5.00;;;;;;;;;;5008639;28;20604;-67
2023/03/07 14:45:35;;;;;;;5.67;2.23;;;;;;;;;;5010176;28;20221;-65